sensor_id;sensor_type;location;lat;lon;timestamp;pressure;altitude;pressure_sealevel;temperature;humidity
41596;BME280;27283;52.504;13.358;2023-04-16T00:01:31;101077.22;;;9.55;100.00
41596;BME280;27283;52.504;13.358;2023-04-16T00:04:03;101082.28;;;9.58;100.00
41596;BME280;27283;52.504;13.358;2023-04-16T00:06:39;101086.53;;;9.61;100.00
41596;BME280;27283;52.504;13.358;2023-04-16T00:09:18;101081.56;;;9.66;100.00
41596;BME280;27283;52.504;13.358;2023-04-16T00:12:00;101089.00;;;9.72;100.00
41596;BME280;27283;52.504;13.358;2023-04-16T00:14:37;101083.88;;;9.79;100.00
41596;BME280;27283;52.504;13.358;2023-04-16T00:17:13;101094.44;;;9.81;100.00
41596;BME280;27283;52.504;13.358;2023-04-16T00:19:46;101098.44;;;9.76;100.00
41596;BME280;27283;52.504;13.358;2023-04-16T00:22:19;101097.59;;;9.76;100.00
41596;BME280;27283;52.504;13.358;2023-04-16T00:24:59;101093.75;;;9.61;100.00
41596;BME280;27283;52.504;13.358;2023-04-16T00:27:43;101093.97;;;9.67;100.00
41596;BME280;27283;52.504;13.358;2023-04-16T00:30:18;101093.66;;;9.70;100.00
41596;BME280;27283;52.504;13.358;2023-04-16T00:32:55;101089.47;;;9.68;100.00
41596;BME280;27283;52.504;13.358;2023-04-16T00:35:30;101088.91;;;9.64;100.00
41596;BME280;27283;52.504;13.358;2023-04-16T00:38:05;101093.13;;;9.67;100.00
41596;BME280;27283;52.504;13.358;2023-04-16T00:40:40;101094.44;;;9.63;100.00
41596;BME280;27283;52.504;13.358;2023-04-16T00:43:24;101091.06;;;9.61;100.00
41596;BME280;27283;52.504;13.358;2023-04-16T00:46:04;101100.50;;;9.65;100.00
41596;BME280;27283;52.504;13.358;2023-04-16T00:48:40;101099.03;;;9.70;100.00
41596;BME280;27283;52.504;13.358;2023-04-16T00:51:18;101094.38;;;9.72;100.00
41596;BME280;27283;52.504;13.358;2023-04-16T00:53:50;101098.97;;;9.62;100.00
41596;BME280;27283;52.504;13.358;2023-04-16T00:56:29;101091.81;;;9.25;100.00
41596;BME280;27283;52.504;13.358;2023-04-16T00:59:04;101088.97;;;9.27;100.00
41596;BME280;27283;52.504;13.358;2023-04-16T01:01:38;101085.69;;;9.33;100.00
41596;BME280;27283;52.504;13.358;2023-04-16T01:04:10;101093.19;;;9.57;100.00
41596;BME280;27283;52.504;13.358;2023-04-16T01:06:43;101101.63;;;9.44;100.00
41596;BME280;27283;52.504;13.358;2023-04-16T01:09:15;101098.63;;;9.47;100.00
41596;BME280;27283;52.504;13.358;2023-04-16T01:11:48;101104.22;;;9.54;100.00
41596;BME280;27283;52.504;13.358;2023-04-16T01:14:24;101108.75;;;9.53;100.00
41596;BME280;27283;52.504;13.358;2023-04-16T01:17:10;101110.16;;;9.57;100.00
41596;BME280;27283;52.504;13.358;2023-04-16T01:19:43;101113.97;;;9.55;100.00
41596;BME280;27283;52.504;13.358;2023-04-16T01:22:23;101113.97;;;9.55;100.00
41596;BME280;27283;52.504;13.358;2023-04-16T01:24:58;101117.13;;;9.50;100.00
41596;BME280;27283;52.504;13.358;2023-04-16T01:27:31;101121.88;;;9.56;100.00
41596;BME280;27283;52.504;13.358;2023-04-16T01:30:06;101115.75;;;9.64;100.00
41596;BME280;27283;52.504;13.358;2023-04-16T01:32:39;101119.25;;;9.47;100.00
41596;BME280;27283;52.504;13.358;2023-04-16T01:35:11;101121.66;;;9.50;100.00
41596;BME280;27283;52.504;13.358;2023-04-16T01:37:49;101123.41;;;9.31;100.00
41596;BME280;27283;52.504;13.358;2023-04-16T01:40:22;101118.00;;;9.41;100.00
41596;BME280;27283;52.504;13.358;2023-04-16T01:42:54;101119.94;;;9.49;100.00
41596;BME280;27283;52.504;13.358;2023-04-16T01:45:27;101118.47;;;9.36;100.00
41596;BME280;27283;52.504;13.358;2023-04-16T01:47:59;101114.00;;;9.27;100.00
41596;BME280;27283;52.504;13.358;2023-04-16T01:50:32;101124.06;;;9.43;100.00
41596;BME280;27283;52.504;13.358;2023-04-16T01:53:09;101115.50;;;9.30;100.00
41596;BME280;27283;52.504;13.358;2023-04-16T01:55:41;101124.53;;;9.38;100.00
41596;BME280;27283;52.504;13.358;2023-04-16T01:58:14;101130.03;;;9.37;100.00
41596;BME280;27283;52.504;13.358;2023-04-16T02:00:46;101131.88;;;9.36;100.00
41596;BME280;27283;52.504;13.358;2023-04-16T02:03:19;101131.81;;;9.46;100.00
41596;BME280;27283;52.504;13.358;2023-04-16T02:05:52;101141.34;;;9.40;100.00
41596;BME280;27283;52.504;13.358;2023-04-16T02:08:31;101135.03;;;9.22;100.00
41596;BME280;27283;52.504;13.358;2023-04-16T02:11:06;101133.31;;;9.31;100.00
41596;BME280;27283;52.504;13.358;2023-04-16T02:13:40;101135.63;;;9.16;100.00
41596;BME280;27283;52.504;13.358;2023-04-16T02:16:27;101142.34;;;9.30;100.00
41596;BME280;27283;52.504;13.358;2023-04-16T02:18:59;101144.88;;;9.31;100.00
41596;BME280;27283;52.504;13.358;2023-04-16T02:21:32;101144.34;;;9.28;100.00
41596;BME280;27283;52.504;13.358;2023-04-16T02:24:08;101152.19;;;9.39;100.00
41596;BME280;27283;52.504;13.358;2023-04-16T14:04:32;101586.75;;;10.59;98.34
41596;BME280;27283;52.504;13.358;2023-04-16T14:07:06;101583.56;;;10.84;97.77
41596;BME280;27283;52.504;13.358;2023-04-16T14:09:37;101592.34;;;10.86;95.34
41596;BME280;27283;52.504;13.358;2023-04-16T14:12:09;101582.53;;;10.94;95.06
41596;BME280;27283;52.504;13.358;2023-04-16T14:14:43;101590.06;;;10.91;95.52
41596;BME280;27283;52.504;13.358;2023-04-16T14:17:16;101592.84;;;10.99;94.74
41596;BME280;27283;52.504;13.358;2023-04-16T14:19:51;101585.28;;;10.85;94.97
41596;BME280;27283;52.504;13.358;2023-04-16T14:22:23;101589.63;;;10.95;95.55
41596;BME280;27283;52.504;13.358;2023-04-16T14:24:55;101594.41;;;11.02;94.80
41596;BME280;27283;52.504;13.358;2023-04-16T14:27:28;101598.66;;;10.94;95.91
41596;BME280;27283;52.504;13.358;2023-04-16T14:30:00;101589.63;;;10.95;96.90
41596;BME280;27283;52.504;13.358;2023-04-16T14:32:35;101595.00;;;10.95;96.23
41596;BME280;27283;52.504;13.358;2023-04-16T14:35:15;101597.38;;;10.98;96.04
41596;BME280;27283;52.504;13.358;2023-04-16T14:37:47;101597.00;;;10.93;95.29
41596;BME280;27283;52.504;13.358;2023-04-16T14:40:22;101594.00;;;10.96;93.56
41596;BME280;27283;52.504;13.358;2023-04-16T14:42:53;101596.78;;;10.77;95.78
41596;BME280;27283;52.504;13.358;2023-04-16T14:45:25;101598.50;;;10.68;96.02
41596;BME280;27283;52.504;13.358;2023-04-16T14:47:58;101595.94;;;10.67;94.83
41596;BME280;27283;52.504;13.358;2023-04-16T14:50:32;101608.00;;;10.53;95.16
41596;BME280;27283;52.504;13.358;2023-04-16T14:53:05;101609.97;;;10.51;94.48
41596;BME280;27283;52.504;13.358;2023-04-16T14:55:36;101605.03;;;10.56;93.56
41596;BME280;27283;52.504;13.358;2023-04-16T14:58:09;101604.19;;;10.26;94.58
41596;BME280;27283;52.504;13.358;2023-04-16T15:00:40;101604.63;;;10.31;94.16
41596;BME280;27283;52.504;13.358;2023-04-16T15:03:13;101606.63;;;10.39;94.34
41596;BME280;27283;52.504;13.358;2023-04-16T15:05:47;101600.94;;;10.32;95.32
41596;BME280;27283;52.504;13.358;2023-04-16T15:08:23;101609.44;;;10.08;97.10
41596;BME280;27283;52.504;13.358;2023-04-16T15:10:55;101611.56;;;10.24;95.84
41596;BME280;27283;52.504;13.358;2023-04-16T15:13:27;101619.88;;;10.31;95.96
41596;BME280;27283;52.504;13.358;2023-04-16T15:16:02;101617.06;;;10.13;97.46
41596;BME280;27283;52.504;13.358;2023-04-16T15:18:35;101621.44;;;10.23;97.53
41596;BME280;27283;52.504;13.358;2023-04-16T15:21:09;101610.16;;;10.10;96.00
41596;BME280;27283;52.504;13.358;2023-04-16T15:23:41;101620.06;;;10.19;97.03
41596;BME280;27283;52.504;13.358;2023-04-16T15:26:13;101622.31;;;10.24;97.79
41596;BME280;27283;52.504;13.358;2023-04-16T15:28:45;101628.94;;;10.29;97.46
41596;BME280;27283;52.504;13.358;2023-04-16T15:31:16;101623.44;;;10.21;98.38
41596;BME280;27283;52.504;13.358;2023-04-16T15:33:48;101629.94;;;10.19;97.46
41596;BME280;27283;52.504;13.358;2023-04-16T15:36:23;101630.81;;;10.19;98.26
41596;BME280;27283;52.504;13.358;2023-04-16T15:38:54;101634.59;;;10.17;97.35
41596;BME280;27283;52.504;13.358;2023-04-16T15:41:28;101640.84;;;10.07;97.85
41596;BME280;27283;52.504;13.358;2023-04-16T15:44:04;101638.16;;;10.07;97.61
41596;BME280;27283;52.504;13.358;2023-04-16T15:46:36;101636.59;;;10.05;96.76
41596;BME280;27283;52.504;13.358;2023-04-16T15:49:08;101645.63;;;10.04;97.69
41596;BME280;27283;52.504;13.358;2023-04-16T15:51:42;101641.25;;;10.03;97.13
41596;BME280;27283;52.504;13.358;2023-04-16T15:54:15;101645.22;;;10.08;98.40
41596;BME280;27283;52.504;13.358;2023-04-16T15:56:46;101649.31;;;10.13;96.96
41596;BME280;27283;52.504;13.358;2023-04-16T15:59:18;101646.63;;;10.13;98.37
41596;BME280;27283;52.504;13.358;2023-04-16T16:01:50;101645.09;;;10.10;98.02
41596;BME280;27283;52.504;13.358;2023-04-16T16:04:22;101647.19;;;10.06;97.30
41596;BME280;27283;52.504;13.358;2023-04-16T16:06:56;101650.03;;;9.95;98.85
41596;BME280;27283;52.504;13.358;2023-04-16T16:09:30;101649.72;;;9.88;97.62
41596;BME280;27283;52.504;13.358;2023-04-16T16:12:02;101658.94;;;9.96;97.30
41596;BME280;27283;52.504;13.358;2023-04-16T16:14:34;101659.06;;;9.94;96.23
41596;BME280;27283;52.504;13.358;2023-04-16T16:17:08;101655.53;;;9.93;96.44
41596;BME280;27283;52.504;13.358;2023-04-16T16:19:40;101661.84;;;9.83;96.06
41596;BME280;27283;52.504;13.358;2023-04-16T16:22:16;101661.72;;;9.84;96.76
41596;BME280;27283;52.504;13.358;2023-04-16T16:24:53;101663.72;;;9.82;96.46
41596;BME280;27283;52.504;13.358;2023-04-16T16:27:25;101659.44;;;9.80;97.81
41596;BME280;27283;52.504;13.358;2023-04-16T16:29:57;101663.97;;;9.69;98.83
41596;BME280;27283;52.504;13.358;2023-04-16T16:32:32;101666.63;;;9.60;99.89
41596;BME280;27283;52.504;13.358;2023-04-16T16:35:06;101669.75;;;9.65;98.99
41596;BME280;27283;52.504;13.358;2023-04-16T16:37:41;101669.72;;;9.55;99.33
41596;BME280;27283;52.504;13.358;2023-04-16T16:40:13;101673.84;;;9.59;99.83
41596;BME280;27283;52.504;13.358;2023-04-16T16:42:45;101674.09;;;9.56;100.00
41596;BME280;27283;52.504;13.358;2023-04-16T16:45:18;101681.16;;;9.57;100.00
41596;BME280;27283;52.504;13.358;2023-04-16T16:47:50;101678.59;;;9.46;98.82
41596;BME280;27283;52.504;13.358;2023-04-16T16:50:22;101683.34;;;9.32;97.75
41596;BME280;27283;52.504;13.358;2023-04-16T16:52:57;101683.91;;;9.36;97.33
41596;BME280;27283;52.504;13.358;2023-04-16T16:55:29;101683.00;;;9.47;97.01
41596;BME280;27283;52.504;13.358;2023-04-16T16:58:03;101689.75;;;9.41;97.59
41596;BME280;27283;52.504;13.358;2023-04-16T17:00:35;101686.66;;;9.46;97.47
41596;BME280;27283;52.504;13.358;2023-04-16T17:03:08;101690.00;;;9.38;98.28
41596;BME280;27283;52.504;13.358;2023-04-16T17:05:40;101694.97;;;9.43;98.23
41596;BME280;27283;52.504;13.358;2023-04-16T17:08:15;101697.72;;;9.31;98.62
41596;BME280;27283;52.504;13.358;2023-04-16T17:10:47;101699.31;;;9.34;99.38
41596;BME280;27283;52.504;13.358;2023-04-16T17:13:19;101695.50;;;9.36;99.42
41596;BME280;27283;52.504;13.358;2023-04-16T17:15:53;101699.19;;;9.35;100.00
41596;BME280;27283;52.504;13.358;2023-04-16T17:18:25;101701.72;;;9.37;100.00
41596;BME280;27283;52.504;13.358;2023-04-16T17:20:57;101706.78;;;9.30;100.00
41596;BME280;27283;52.504;13.358;2023-04-16T17:23:32;101706.06;;;9.28;100.00
41596;BME280;27283;52.504;13.358;2023-04-16T17:26:04;101712.31;;;9.08;100.00
41596;BME280;27283;52.504;13.358;2023-04-16T17:28:36;101706.41;;;9.14;100.00
41596;BME280;27283;52.504;13.358;2023-04-16T17:31:08;101720.16;;;8.99;100.00
41596;BME280;27283;52.504;13.358;2023-04-16T17:33:40;101718.66;;;9.07;100.00
41596;BME280;27283;52.504;13.358;2023-04-16T17:36:13;101721.47;;;9.05;100.00
41596;BME280;27283;52.504;13.358;2023-04-16T17:38:49;101721.03;;;9.00;100.00
41596;BME280;27283;52.504;13.358;2023-04-16T17:41:22;101723.50;;;8.92;100.00
41596;BME280;27283;52.504;13.358;2023-04-16T17:43:54;101726.31;;;8.90;100.00
41596;BME280;27283;52.504;13.358;2023-04-16T17:46:26;101718.97;;;8.92;100.00
41596;BME280;27283;52.504;13.358;2023-04-16T17:48:58;101726.94;;;8.94;100.00
41596;BME280;27283;52.504;13.358;2023-04-16T17:51:30;101732.66;;;8.89;100.00
41596;BME280;27283;52.504;13.358;2023-04-16T17:54:04;101737.72;;;9.03;100.00
41596;BME280;27283;52.504;13.358;2023-04-16T17:56:36;101737.84;;;9.02;100.00
41596;BME280;27283;52.504;13.358;2023-04-16T17:59:08;101736.13;;;9.01;100.00
41596;BME280;27283;52.504;13.358;2023-04-16T18:01:40;101740.22;;;8.95;100.00
41596;BME280;27283;52.504;13.358;2023-04-16T18:04:13;101737.06;;;8.90;100.00
41596;BME280;27283;52.504;13.358;2023-04-16T18:06:46;101748.13;;;8.97;100.00
41596;BME280;27283;52.504;13.358;2023-04-16T18:09:20;101752.88;;;8.93;100.00
41596;BME280;27283;52.504;13.358;2023-04-16T18:11:53;101752.44;;;8.88;100.00
41596;BME280;27283;52.504;13.358;2023-04-16T18:14:25;101755.78;;;8.80;100.00
41596;BME280;27283;52.504;13.358;2023-04-16T18:16:56;101757.66;;;8.90;100.00
41596;BME280;27283;52.504;13.358;2023-04-16T18:19:32;101766.53;;;8.69;100.00
41596;BME280;27283;52.504;13.358;2023-04-16T18:22:04;101769.34;;;8.67;100.00
41596;BME280;27283;52.504;13.358;2023-04-16T18:24:38;101774.06;;;8.75;100.00
41596;BME280;27283;52.504;13.358;2023-04-16T18:27:10;101779.41;;;8.75;100.00
41596;BME280;27283;52.504;13.358;2023-04-16T18:29:42;101776.47;;;8.78;100.00
41596;BME280;27283;52.504;13.358;2023-04-16T18:32:14;101783.22;;;8.73;100.00
41596;BME280;27283;52.504;13.358;2023-04-16T18:34:45;101783.13;;;8.63;100.00
41596;BME280;27283;52.504;13.358;2023-04-16T18:37:17;101780.44;;;8.63;100.00
41596;BME280;27283;52.504;13.358;2023-04-16T18:39:51;101789.94;;;8.67;100.00
41596;BME280;27283;52.504;13.358;2023-04-16T18:42:28;101780.25;;;8.55;100.00
41596;BME280;27283;52.504;13.358;2023-04-16T18:45:00;101795.59;;;8.52;100.00
41596;BME280;27283;52.504;13.358;2023-04-16T18:47:33;101798.53;;;8.49;100.00
41596;BME280;27283;52.504;13.358;2023-04-16T18:50:07;101800.81;;;8.54;100.00
41596;BME280;27283;52.504;13.358;2023-04-16T18:52:40;101799.72;;;8.57;100.00
41596;BME280;27283;52.504;13.358;2023-04-16T18:55:15;101802.91;;;8.39;100.00
41596;BME280;27283;52.504;13.358;2023-04-16T18:57:47;101809.63;;;8.45;100.00
41596;BME280;27283;52.504;13.358;2023-04-16T19:00:19;101811.56;;;8.43;100.00
41596;BME280;27283;52.504;13.358;2023-04-16T19:02:52;101800.72;;;8.33;100.00
41596;BME280;27283;52.504;13.358;2023-04-16T19:05:24;101807.91;;;8.44;100.00
41596;BME280;27283;52.504;13.358;2023-04-16T19:07:57;101808.38;;;8.38;100.00
41596;BME280;27283;52.504;13.358;2023-04-16T19:10:32;101802.31;;;8.36;100.00
41596;BME280;27283;52.504;13.358;2023-04-16T19:13:05;101804.03;;;8.37;100.00
41596;BME280;27283;52.504;13.358;2023-04-16T19:15:37;101809.97;;;8.40;100.00
41596;BME280;27283;52.504;13.358;2023-04-16T19:18:09;101819.97;;;8.49;100.00
41596;BME280;27283;52.504;13.358;2023-04-16T19:20:41;101821.06;;;8.47;100.00
41596;BME280;27283;52.504;13.358;2023-04-16T19:23:13;101819.38;;;8.46;100.00
41596;BME280;27283;52.504;13.358;2023-04-16T19:25:50;101814.63;;;8.49;100.00
41596;BME280;27283;52.504;13.358;2023-04-16T19:28:24;101819.72;;;8.52;100.00
41596;BME280;27283;52.504;13.358;2023-04-16T19:30:56;101814.38;;;8.41;100.00
41596;BME280;27283;52.504;13.358;2023-04-16T19:33:29;101810.50;;;8.23;100.00
41596;BME280;27283;52.504;13.358;2023-04-16T19:36:01;101817.44;;;8.37;100.00
41596;BME280;27283;52.504;13.358;2023-04-16T19:38:33;101826.09;;;8.29;100.00
41596;BME280;27283;52.504;13.358;2023-04-16T19:41:08;101827.81;;;8.19;100.00
41596;BME280;27283;52.504;13.358;2023-04-16T19:43:40;101826.09;;;8.18;100.00
41596;BME280;27283;52.504;13.358;2023-04-16T19:46:14;101828.06;;;8.15;100.00
41596;BME280;27283;52.504;13.358;2023-04-16T19:48:46;101826.34;;;8.26;100.00
41596;BME280;27283;52.504;13.358;2023-04-16T19:51:23;101825.34;;;8.27;100.00
41596;BME280;27283;52.504;13.358;2023-04-16T19:53:56;101822.06;;;8.23;100.00
41596;BME280;27283;52.504;13.358;2023-04-16T19:56:34;101825.09;;;8.30;100.00
41596;BME280;27283;52.504;13.358;2023-04-16T19:59:06;101829.25;;;8.23;100.00
41596;BME280;27283;52.504;13.358;2023-04-16T20:01:40;101824.63;;;8.25;100.00
41596;BME280;27283;52.504;13.358;2023-04-16T20:04:13;101827.69;;;8.20;100.00
41596;BME280;27283;52.504;13.358;2023-04-16T20:06:49;101830.38;;;8.20;100.00
41596;BME280;27283;52.504;13.358;2023-04-16T20:09:23;101831.47;;;8.18;100.00
41596;BME280;27283;52.504;13.358;2023-04-16T20:12:00;101838.41;;;8.20;100.00
41596;BME280;27283;52.504;13.358;2023-04-16T20:14:32;101841.94;;;8.09;100.00
41596;BME280;27283;52.504;13.358;2023-04-16T20:17:05;101838.03;;;8.13;100.00
41596;BME280;27283;52.504;13.358;2023-04-16T20:19:39;101832.53;;;8.15;100.00
41596;BME280;27283;52.504;13.358;2023-04-16T20:22:19;101835.72;;;8.20;100.00
41596;BME280;27283;52.504;13.358;2023-04-16T20:24:52;101841.19;;;8.07;100.00
41596;BME280;27283;52.504;13.358;2023-04-16T20:27:28;101832.69;;;8.02;100.00
41596;BME280;27283;52.504;13.358;2023-04-16T20:30:01;101839.63;;;7.93;100.00
41596;BME280;27283;52.504;13.358;2023-04-16T20:32:34;101836.81;;;7.95;100.00
41596;BME280;27283;52.504;13.358;2023-04-16T20:35:08;101841.59;;;7.91;100.00
41596;BME280;27283;52.504;13.358;2023-04-16T20:37:42;101843.53;;;8.01;100.00
41596;BME280;27283;52.504;13.358;2023-04-16T20:40:15;101840.13;;;7.87;100.00
41596;BME280;27283;52.504;13.358;2023-04-16T20:42:50;101848.75;;;7.79;100.00
41596;BME280;27283;52.504;13.358;2023-04-16T20:45:26;101840.22;;;7.74;100.00
41596;BME280;27283;52.504;13.358;2023-04-16T20:48:00;101849.84;;;7.77;100.00
41596;BME280;27283;52.504;13.358;2023-04-16T20:50:33;101853.47;;;7.76;100.00
41596;BME280;27283;52.504;13.358;2023-04-16T20:53:07;101854.34;;;7.76;100.00
41596;BME280;27283;52.504;13.358;2023-04-16T20:55:45;101849.50;;;7.70;100.00
41596;BME280;27283;52.504;13.358;2023-04-16T20:58:20;101851.53;;;7.67;100.00
41596;BME280;27283;52.504;13.358;2023-04-16T21:00:54;101853.84;;;7.71;100.00
41596;BME280;27283;52.504;13.358;2023-04-16T21:03:27;101861.50;;;7.76;100.00
41596;BME280;27283;52.504;13.358;2023-04-16T21:06:01;101860.78;;;7.74;100.00
41596;BME280;27283;52.504;13.358;2023-04-16T21:08:34;101857.38;;;7.83;100.00
41596;BME280;27283;52.504;13.358;2023-04-16T21:11:08;101857.75;;;7.78;100.00
41596;BME280;27283;52.504;13.358;2023-04-16T21:13:43;101864.19;;;7.65;100.00
41596;BME280;27283;52.504;13.358;2023-04-16T21:16:15;101855.03;;;7.56;100.00
41596;BME280;27283;52.504;13.358;2023-04-16T21:18:48;101861.16;;;7.58;100.00
41596;BME280;27283;52.504;13.358;2023-04-16T21:21:20;101857.38;;;7.60;100.00
41596;BME280;27283;52.504;13.358;2023-04-16T21:23:53;101861.59;;;7.52;100.00
41596;BME280;27283;52.504;13.358;2023-04-16T21:26:25;101856.59;;;7.47;100.00
41596;BME280;27283;52.504;13.358;2023-04-16T21:29:02;101857.44;;;7.36;100.00
41596;BME280;27283;52.504;13.358;2023-04-16T21:31:35;101862.06;;;7.34;100.00
41596;BME280;27283;52.504;13.358;2023-04-16T21:34:07;101860.88;;;7.38;100.00
41596;BME280;27283;52.504;13.358;2023-04-16T21:36:39;101859.03;;;7.39;100.00
41596;BME280;27283;52.504;13.358;2023-04-16T21:39:11;101860.22;;;7.23;100.00
41596;BME280;27283;52.504;13.358;2023-04-16T21:41:47;101861.00;;;7.37;100.00
41596;BME280;27283;52.504;13.358;2023-04-16T21:44:21;101859.00;;;7.27;100.00
41596;BME280;27283;52.504;13.358;2023-04-16T21:46:54;101856.31;;;7.27;100.00
41596;BME280;27283;52.504;13.358;2023-04-16T21:49:26;101860.47;;;7.32;100.00
41596;BME280;27283;52.504;13.358;2023-04-16T21:52:01;101856.94;;;7.31;100.00
41596;BME280;27283;52.504;13.358;2023-04-16T21:54:34;101866.03;;;7.17;100.00
41596;BME280;27283;52.504;13.358;2023-04-16T21:57:10;101864.94;;;7.20;100.00
41596;BME280;27283;52.504;13.358;2023-04-16T21:59:45;101871.63;;;7.14;100.00
41596;BME280;27283;52.504;13.358;2023-04-16T22:02:17;101868.53;;;7.07;100.00
41596;BME280;27283;52.504;13.358;2023-04-16T22:04:49;101861.66;;;7.16;100.00
41596;BME280;27283;52.504;13.358;2023-04-16T22:07:22;101863.47;;;7.16;100.00
41596;BME280;27283;52.504;13.358;2023-04-16T22:09:56;101870.91;;;7.23;100.00
41596;BME280;27283;52.504;13.358;2023-04-16T22:12:29;101868.59;;;7.19;100.00
41596;BME280;27283;52.504;13.358;2023-04-16T22:15:04;101859.81;;;7.17;100.00
41596;BME280;27283;52.504;13.358;2023-04-16T22:17:39;101868.66;;;7.06;100.00
41596;BME280;27283;52.504;13.358;2023-04-16T22:20:11;101877.81;;;7.15;100.00
41596;BME280;27283;52.504;13.358;2023-04-16T22:22:44;101873.75;;;7.09;100.00
41596;BME280;27283;52.504;13.358;2023-04-16T22:25:16;101869.97;;;7.00;100.00
41596;BME280;27283;52.504;13.358;2023-04-16T22:27:48;101876.28;;;6.99;100.00
41596;BME280;27283;52.504;13.358;2023-04-16T22:30:23;101869.84;;;7.02;100.00
41596;BME280;27283;52.504;13.358;2023-04-16T22:32:56;101871.56;;;7.03;100.00
41596;BME280;27283;52.504;13.358;2023-04-16T22:35:28;101883.78;;;6.94;100.00
41596;BME280;27283;52.504;13.358;2023-04-16T22:38:01;101876.75;;;6.93;100.00
41596;BME280;27283;52.504;13.358;2023-04-16T22:40:33;101880.28;;;6.94;100.00
41596;BME280;27283;52.504;13.358;2023-04-16T22:43:05;101880.84;;;6.86;100.00
41596;BME280;27283;52.504;13.358;2023-04-16T22:45:40;101876.19;;;7.01;100.00
41596;BME280;27283;52.504;13.358;2023-04-16T22:48:14;101887.22;;;6.96;100.00
41596;BME280;27283;52.504;13.358;2023-04-16T22:50:46;101876.97;;;6.90;100.00
41596;BME280;27283;52.504;13.358;2023-04-16T22:53:22;101878.78;;;6.89;100.00
41596;BME280;27283;52.504;13.358;2023-04-16T22:55:54;101885.50;;;6.95;100.00
41596;BME280;27283;52.504;13.358;2023-04-16T22:58:29;101874.75;;;6.84;100.00
41596;BME280;27283;52.504;13.358;2023-04-16T23:01:04;101882.88;;;6.82;100.00
41596;BME280;27283;52.504;13.358;2023-04-16T23:03:36;101882.53;;;6.87;100.00
41596;BME280;27283;52.504;13.358;2023-04-16T23:06:08;101880.09;;;6.84;100.00
41596;BME280;27283;52.504;13.358;2023-04-16T23:08:42;101884.91;;;6.91;100.00
41596;BME280;27283;52.504;13.358;2023-04-16T23:11:14;101881.34;;;6.91;100.00
41596;BME280;27283;52.504;13.358;2023-04-16T23:13:47;101885.63;;;6.94;100.00
41596;BME280;27283;52.504;13.358;2023-04-16T23:16:22;101880.53;;;6.78;100.00
41596;BME280;27283;52.504;13.358;2023-04-16T23:18:55;101890.06;;;6.82;100.00
41596;BME280;27283;52.504;13.358;2023-04-16T23:21:27;101885.78;;;6.79;100.00
41596;BME280;27283;52.504;13.358;2023-04-16T23:24:00;101882.66;;;6.85;100.00
41596;BME280;27283;52.504;13.358;2023-04-16T23:26:33;101888.44;;;6.79;100.00
41596;BME280;27283;52.504;13.358;2023-04-16T23:29:06;101885.13;;;6.88;100.00
41596;BME280;27283;52.504;13.358;2023-04-16T23:31:41;101885.19;;;6.87;100.00
41596;BME280;27283;52.504;13.358;2023-04-16T23:34:14;101883.06;;;6.92;100.00
41596;BME280;27283;52.504;13.358;2023-04-16T23:36:46;101888.41;;;6.92;100.00
41596;BME280;27283;52.504;13.358;2023-04-16T23:39:19;101884.44;;;6.98;100.00
41596;BME280;27283;52.504;13.358;2023-04-16T23:41:51;101892.69;;;6.95;100.00
41596;BME280;27283;52.504;13.358;2023-04-16T23:44:25;101886.69;;;6.91;100.00
41596;BME280;27283;52.504;13.358;2023-04-16T23:47:00;101877.81;;;6.90;100.00
41596;BME280;27283;52.504;13.358;2023-04-16T23:49:34;101888.00;;;6.85;100.00
41596;BME280;27283;52.504;13.358;2023-04-16T23:52:07;101881.69;;;6.86;100.00
41596;BME280;27283;52.504;13.358;2023-04-16T23:54:39;101884.38;;;6.86;100.00
41596;BME280;27283;52.504;13.358;2023-04-16T23:57:12;101886.88;;;6.77;100.00
41596;BME280;27283;52.504;13.358;2023-04-16T23:59:44;101894.31;;;6.84;100.00
